Terminal Aerodrome Forecast
Issued by NWS

Home | Current Version | Previous Version | Graphics & Text | Print | Product List | Glossary On
Versions: 1 2 3 4 5 6 7 8 9 10 11 12 13 14 15 16 17 18 19 20 21 22 23 24 25 26 27 28 29
887
FTUS43 KLOT 251728
TAFDPA
TAF
KDPA 251728Z 2518/2618 05014KT 6SM BR VCSH OVC006
      TEMPO 2519/2522 4SM -SHRA BR
     FM252200 07011KT 4SM -SHRA BR OVC008
     FM260300 09009KT 2SM -RADZ BR OVC005
     FM261500 16009KT 3SM -RADZ BR OVC008=

USA.gov is the U.S. government's official web portal to all federal, state and local government web resources and services.